createdAt,value
2022-10-05T00:01:00.245Z,99134.38
2022-10-05T00:03:33.639Z,99140.53
2022-10-05T00:06:00.673Z,99140.09
2022-10-05T00:08:32.203Z,99141.81
2022-10-05T00:10:59.702Z,99143.00
2022-10-05T00:13:29.759Z,99135.91
2022-10-05T00:16:09.612Z,99140.31
2022-10-05T00:18:37.092Z,99135.09
2022-10-05T00:21:19.746Z,99144.16
2022-10-05T00:23:47.145Z,99142.84
2022-10-05T00:26:20.183Z,99146.84
2022-10-05T00:28:47.919Z,99152.56
2022-10-05T00:31:36.201Z,99145.53
2022-10-05T00:34:03.460Z,99151.91
2022-10-05T00:36:30.449Z,99148.66
2022-10-05T00:38:57.388Z,99149.41
2022-10-05T00:41:42.536Z,99153.28
2022-10-05T00:44:28.052Z,99151.72
2022-10-05T00:47:04.553Z,99136.84
2022-10-05T00:49:57.508Z,99142.25
2022-10-05T00:53:02.768Z,99146.63
2022-10-05T00:55:38.464Z,99148.41
2022-10-05T00:58:52.576Z,99148.66
2022-10-05T01:01:30.188Z,99153.38
2022-10-05T01:04:13.602Z,99152.78
2022-10-05T01:06:55.535Z,99153.94
2022-10-05T01:09:45.688Z,99154.72
2022-10-05T01:12:37.830Z,99157.09
2022-10-05T01:15:21.978Z,99159.69
2022-10-05T01:17:58.349Z,99167.66
2022-10-05T01:20:39.665Z,99161.09
2022-10-05T01:23:32.588Z,99162.75
2022-10-05T01:26:17.521Z,99167.16
2022-10-05T01:28:52.850Z,99165.72
2022-10-05T01:31:19.825Z,99170.03
2022-10-05T01:33:56.552Z,99179.84
2022-10-05T01:36:37.256Z,99176.38
2022-10-05T01:39:43.151Z,99180.03
2022-10-05T01:42:22.068Z,99173.13
2022-10-05T01:44:55.433Z,99176.78
2022-10-05T01:47:33.443Z,99167.09
2022-10-05T01:50:07.103Z,99167.19
2022-10-05T01:52:51.150Z,99159.31
2022-10-05T01:56:03.784Z,99168.53
2022-10-05T01:58:50.892Z,99179.81
2022-10-05T02:01:20.412Z,99178.56
2022-10-05T02:03:57.620Z,99189.50
2022-10-05T02:06:28.094Z,99177.31
2022-10-05T02:09:26.809Z,99195.94
2022-10-05T02:12:07.074Z,99198.72
2022-10-05T02:14:42.063Z,99199.75
2022-10-05T02:17:17.628Z,99200.81
2022-10-05T02:19:56.170Z,99197.19
2022-10-05T02:22:37.394Z,99199.97
2022-10-05T02:25:13.578Z,99204.38
2022-10-05T02:28:13.114Z,99207.94
2022-10-05T02:31:07.356Z,99207.94
2022-10-05T02:33:36.036Z,99207.72
2022-10-05T02:36:17.988Z,99211.97
2022-10-05T02:38:52.879Z,99222.13
2022-10-05T02:41:42.403Z,99211.00
2022-10-05T02:44:22.087Z,99211.75
2022-10-05T02:47:02.329Z,99218.88
2022-10-05T02:49:44.044Z,99218.88
2022-10-05T02:52:22.559Z,99207.44
2022-10-05T02:55:26.390Z,99224.44
2022-10-05T02:58:03.808Z,99209.47
2022-10-05T03:00:37.016Z,99221.06
2022-10-05T03:03:16.673Z,99220.97
2022-10-05T03:06:03.831Z,99217.03
2022-10-05T03:08:31.683Z,99217.03
2022-10-05T03:11:18.474Z,99215.88
2022-10-05T03:14:13.595Z,99218.47
2022-10-05T03:17:08.568Z,99218.28
2022-10-05T03:19:37.062Z,99214.84
2022-10-05T03:22:29.509Z,99217.34
2022-10-05T03:25:36.222Z,99215.78
2022-10-05T03:28:22.800Z,99218.69
2022-10-05T03:31:23.649Z,99221.75
2022-10-05T03:34:00.859Z,99225.19
2022-10-05T03:36:49.686Z,99232.22
2022-10-05T03:39:38.714Z,99233.25
2022-10-05T03:42:11.660Z,99234.00
2022-10-05T03:44:45.056Z,99233.06
2022-10-05T03:47:43.495Z,99233.25
2022-10-05T03:50:34.271Z,99236.09
2022-10-05T03:53:11.056Z,99240.63
2022-10-05T03:55:48.106Z,99240.72
2022-10-05T03:58:29.530Z,99245.50
2022-10-05T04:01:03.828Z,99243.28
2022-10-05T04:03:38.235Z,99249.91
2022-10-05T04:06:15.682Z,99243.84
2022-10-05T04:08:50.862Z,99249.13
2022-10-05T04:11:26.452Z,99250.84
2022-10-05T04:14:16.015Z,99259.09
2022-10-05T04:16:49.806Z,99265.41
2022-10-05T04:19:24.969Z,99257.63
2022-10-05T04:22:06.401Z,99262.22
2022-10-05T04:24:39.874Z,99267.50
2022-10-05T04:27:36.294Z,99269.50
2022-10-05T04:30:05.483Z,99274.88
2022-10-05T04:32:45.903Z,99282.47
2022-10-05T04:35:31.879Z,99286.97
2022-10-05T04:38:12.044Z,99288.63
2022-10-05T04:40:51.776Z,99282.47
2022-10-05T04:43:32.582Z,99280.47
2022-10-05T04:46:05.350Z,99283.72
2022-10-05T04:48:50.313Z,99288.25
2022-10-05T04:51:26.546Z,99290.16
2022-10-05T04:53:59.129Z,99286.53
2022-10-05T04:56:32.449Z,99286.34
2022-10-05T04:59:20.161Z,99288.75
2022-10-05T05:02:17.093Z,99293.97
2022-10-05T05:04:57.735Z,99294.66
2022-10-05T05:07:53.911Z,99303.88
2022-10-05T05:10:39.772Z,99302.59
2022-10-05T05:13:29.927Z,99294.28
2022-10-05T05:16:05.093Z,99309.06
2022-10-05T05:18:42.671Z,99300.47
2022-10-05T05:21:31.175Z,99303.38
2022-10-05T05:24:03.235Z,99297.63
2022-10-05T05:26:55.775Z,99309.66
2022-10-05T05:29:49.682Z,99314.63
2022-10-05T05:32:45.991Z,99320.25
2022-10-05T05:35:36.828Z,99329.44
2022-10-05T05:38:37.679Z,99324.47
2022-10-05T05:41:12.339Z,99331.19
2022-10-05T05:43:53.653Z,99343.03
2022-10-05T05:46:58.392Z,99338.22
2022-10-05T05:49:32.280Z,99333.31
2022-10-05T05:52:13.671Z,99339.06
2022-10-05T05:55:29.688Z,99345.38
2022-10-05T05:58:04.509Z,99340.41
2022-10-05T06:01:20.209Z,99351.22
2022-10-05T06:04:01.653Z,99336.13
2022-10-05T06:06:34.982Z,99336.50
2022-10-05T06:09:15.762Z,99333.22
2022-10-05T06:12:21.512Z,99332.50
2022-10-05T06:14:55.297Z,99334.13
2022-10-05T06:17:32.927Z,99338.38
2022-10-05T06:20:05.446Z,99330.81
2022-10-05T06:22:42.538Z,99336.38
2022-10-05T06:25:12.463Z,99344.28
2022-10-05T06:28:08.436Z,99333.31
2022-10-05T06:31:09.080Z,99333.31
2022-10-05T06:33:50.764Z,99341.13
2022-10-05T06:36:38.961Z,99339.56
2022-10-05T06:39:43.701Z,99344.13
2022-10-05T06:42:23.099Z,99354.69
2022-10-05T06:45:22.386Z,99345.81
2022-10-05T06:48:39.296Z,99357.91
2022-10-05T06:51:52.908Z,99366.56
2022-10-05T06:54:35.243Z,99367.53
2022-10-05T06:57:21.728Z,99370.94
2022-10-05T07:00:02.692Z,99377.31
2022-10-05T07:02:53.813Z,99375.28
2022-10-05T07:05:45.453Z,99373.66
2022-10-05T07:08:24.938Z,99379.34
2022-10-05T07:11:43.017Z,99370.13
2022-10-05T07:14:36.185Z,99377.13
2022-10-05T07:17:27.525Z,99374.91
2022-10-05T07:20:09.225Z,99378.34
2022-10-05T07:23:13.873Z,99374.72
2022-10-05T07:25:53.373Z,99385.88
2022-10-05T07:28:47.639Z,99385.34
2022-10-05T07:31:40.776Z,99387.78
2022-10-05T07:34:44.141Z,99380.06
2022-10-05T07:37:38.647Z,99391.41
2022-10-05T07:40:18.201Z,99389.34
2022-10-05T07:43:22.455Z,99375.31
2022-10-05T07:46:03.684Z,99387.34
2022-10-05T07:49:00.228Z,99386.34
2022-10-05T07:51:36.484Z,99390.06
2022-10-05T07:54:57.157Z,99388.09
2022-10-05T07:57:38.429Z,99393.13
2022-10-05T08:00:20.388Z,99380.53
2022-10-05T08:02:53.411Z,99383.91
2022-10-05T08:05:24.355Z,99386.50
2022-10-05T08:08:16.683Z,99390.03
2022-10-05T08:10:59.767Z,99378.50
2022-10-05T08:13:52.226Z,99383.22
2022-10-05T08:16:19.979Z,99392.34
2022-10-05T08:19:06.830Z,99387.19
2022-10-05T08:21:45.123Z,99396.81
2022-10-05T08:24:21.296Z,99387.00
2022-10-05T08:27:04.658Z,99379.91
2022-10-05T08:29:34.620Z,99390.78
2022-10-05T08:32:12.716Z,99375.50
2022-10-05T08:34:52.609Z,99386.88
2022-10-05T08:37:22.587Z,99376.00
2022-10-05T08:40:22.644Z,99376.16
2022-10-05T08:43:01.583Z,99380.53
2022-10-05T08:45:31.470Z,99377.38
2022-10-05T08:48:36.177Z,99368.91
2022-10-05T08:51:48.736Z,99359.28
2022-10-05T08:54:34.817Z,99367.56
2022-10-05T08:57:22.815Z,99368.63
2022-10-05T09:00:20.736Z,99358.00
2022-10-05T09:03:08.868Z,99355.38
2022-10-05T09:06:06.306Z,99352.47
2022-10-05T09:09:12.759Z,99346.28
2022-10-05T09:11:46.198Z,99348.22
2022-10-05T09:14:34.179Z,99344.13
2022-10-05T09:17:39.928Z,99342.34
2022-10-05T09:20:25.364Z,99347.66
2022-10-05T09:23:05.212Z,99341.03
2022-10-05T09:25:44.100Z,99346.59
2022-10-05T09:28:23.047Z,99350.63
2022-10-05T09:31:12.791Z,99341.19
2022-10-05T09:34:00.612Z,99349.03
2022-10-05T09:36:27.557Z,99344.78
2022-10-05T09:38:57.378Z,99342.41
2022-10-05T09:41:30.074Z,99338.00
2022-10-05T09:44:11.987Z,99338.75
2022-10-05T09:46:57.625Z,99335.59
2022-10-05T09:49:55.404Z,99337.56
2022-10-05T09:52:48.391Z,99343.81
2022-10-05T09:55:39.343Z,99329.53
2022-10-05T09:58:37.031Z,99326.97
2022-10-05T10:01:33.710Z,99330.25
2022-10-05T10:04:08.163Z,99325.66
2022-10-05T10:07:25.914Z,99315.00
2022-10-05T10:10:31.092Z,99325.38
2022-10-05T10:13:31.175Z,99319.63
2022-10-05T10:16:00.780Z,99317.19
2022-10-05T10:18:27.777Z,99317.16
2022-10-05T10:21:49.070Z,99315.94
2022-10-05T10:24:44.226Z,99310.88
2022-10-05T10:27:20.474Z,99305.22
2022-10-05T10:30:14.015Z,99302.97
2022-10-05T10:32:54.451Z,99305.78
2022-10-05T10:35:37.340Z,99302.53
2022-10-05T10:38:23.816Z,99300.06
2022-10-05T10:41:14.477Z,99297.91
2022-10-05T10:43:41.728Z,99301.69
2022-10-05T10:46:29.965Z,99295.38
2022-10-05T10:49:33.656Z,99294.91
2022-10-05T10:52:31.316Z,99293.91
2022-10-05T10:55:04.511Z,99295.28
2022-10-05T10:57:52.798Z,99290.16
2022-10-05T11:00:38.204Z,99288.44
2022-10-05T11:03:24.110Z,99281.59
2022-10-05T11:06:17.254Z,99280.72
2022-10-05T11:09:21.322Z,99278.13
2022-10-05T11:12:12.879Z,99278.94
2022-10-05T11:14:48.636Z,99278.50
2022-10-05T11:17:18.348Z,99276.50
2022-10-05T11:20:04.364Z,99281.78
2022-10-05T11:22:54.632Z,99284.56
2022-10-05T11:25:58.877Z,99265.09
2022-10-05T11:29:01.141Z,99263.13
2022-10-05T11:31:50.414Z,99256.72
2022-10-05T11:34:27.312Z,99257.69
2022-10-05T11:37:24.868Z,99258.25
2022-10-05T11:40:10.178Z,99260.72
2022-10-05T11:43:00.371Z,99264.72
2022-10-05T11:45:46.610Z,99258.59
2022-10-05T11:49:15.469Z,99253.75
2022-10-05T11:51:47.692Z,99253.75
2022-10-05T11:54:17.707Z,99237.63
2022-10-05T11:56:54.750Z,99233.41
2022-10-05T11:59:39.628Z,99227.88
2022-10-05T12:02:48.278Z,99221.06
2022-10-05T12:05:21.439Z,99222.75
2022-10-05T12:08:30.064Z,99215.66
2022-10-05T12:11:33.987Z,99213.47
2022-10-05T12:14:10.638Z,99223.88
2022-10-05T12:16:50.982Z,99210.50
2022-10-05T12:19:22.109Z,99211.63
2022-10-05T12:22:10.058Z,99212.88
2022-10-05T12:24:36.977Z,99208.03
2022-10-05T12:27:32.374Z,99206.00
2022-10-05T12:30:05.932Z,99206.31
2022-10-05T12:32:41.632Z,99204.00
2022-10-05T12:35:43.964Z,99193.75
2022-10-05T12:38:25.039Z,99187.50
2022-10-05T12:41:11.135Z,99194.25
2022-10-05T12:43:53.929Z,99182.78
2022-10-05T12:46:55.557Z,99183.03
2022-10-05T12:49:50.004Z,99183.75
2022-10-05T12:52:37.659Z,99188.16
2022-10-05T12:55:22.042Z,99187.97
2022-10-05T12:58:05.815Z,99194.06
2022-10-05T13:00:38.047Z,99197.72
2022-10-05T13:03:44.944Z,99200.06
2022-10-05T13:06:55.767Z,99197.38
2022-10-05T13:09:40.345Z,99193.88
2022-10-05T13:12:27.054Z,99193.16
2022-10-05T13:15:08.776Z,99189.66
2022-10-05T13:17:42.675Z,99192.19
2022-10-05T13:20:29.898Z,99178.31
2022-10-05T13:23:34.981Z,99179.16
2022-10-05T13:26:07.896Z,99187.06
2022-10-05T13:28:58.630Z,99176.41
2022-10-05T13:31:33.126Z,99184.72
2022-10-05T13:34:18.022Z,99183.13
2022-10-05T13:37:23.323Z,99183.88
2022-10-05T13:40:01.179Z,99169.47
2022-10-05T13:42:40.326Z,99168.50
2022-10-05T13:45:20.307Z,99161.56
2022-10-05T13:47:58.814Z,99169.84
2022-10-05T13:50:33.623Z,99164.13
2022-10-05T13:53:24.800Z,99162.97
2022-10-05T13:56:06.927Z,99156.75
2022-10-05T13:58:45.370Z,99147.56
2022-10-05T14:01:43.619Z,99143.38
2022-10-05T14:04:21.232Z,99154.31
2022-10-05T14:06:49.623Z,99146.91
2022-10-05T14:09:30.396Z,99150.59
2022-10-05T14:12:03.183Z,99142.25
2022-10-05T14:14:42.310Z,99151.38
2022-10-05T14:17:35.756Z,99153.03
2022-10-05T14:20:26.035Z,99141.31
2022-10-05T14:23:01.029Z,99151.03
2022-10-05T14:25:30.215Z,99148.03
2022-10-05T14:28:12.414Z,99149.25
2022-10-05T14:30:40.984Z,99136.72
2022-10-05T14:33:17.332Z,99136.09
2022-10-05T14:35:49.180Z,99142.44
2022-10-05T14:38:30.015Z,99133.44
2022-10-05T14:41:17.721Z,99129.09
2022-10-05T14:44:13.442Z,99131.56
2022-10-05T14:47:12.048Z,99133.88
2022-10-05T14:50:16.228Z,99133.66
2022-10-05T14:53:17.415Z,99138.97
2022-10-05T14:56:09.172Z,99130.88
2022-10-05T14:58:55.974Z,99127.66
2022-10-05T15:01:31.832Z,99141.31
2022-10-05T15:04:21.428Z,99127.19
2022-10-05T15:07:06.344Z,99138.56
2022-10-05T15:09:52.073Z,99140.59
2022-10-05T15:12:29.552Z,99135.38
2022-10-05T15:15:05.165Z,99143.38
2022-10-05T15:17:52.749Z,99134.44
2022-10-05T15:20:29.471Z,99139.59
2022-10-05T15:23:11.484Z,99144.09
2022-10-05T15:26:06.298Z,99141.75
2022-10-05T15:28:54.724Z,99141.34
2022-10-05T15:31:25.932Z,99140.50
2022-10-05T15:34:08.179Z,99142.19
2022-10-05T15:36:52.613Z,99137.50
2022-10-05T15:39:36.428Z,99137.06
2022-10-05T15:42:17.424Z,99144.72
2022-10-05T15:44:52.333Z,99142.25
2022-10-05T15:47:54.814Z,99148.69
2022-10-05T15:50:35.672Z,99152.47
2022-10-05T15:53:17.835Z,99147.59
2022-10-05T15:55:56.634Z,99140.00
2022-10-05T15:58:31.498Z,99151.03
2022-10-05T16:01:11.363Z,99158.44
2022-10-05T16:03:49.369Z,99156.41
2022-10-05T16:06:56.728Z,99163.09
2022-10-05T16:09:34.575Z,99167.03
2022-10-05T16:12:21.534Z,99174.72
2022-10-05T16:15:00.694Z,99183.00
2022-10-05T16:17:47.475Z,99190.38
2022-10-05T16:20:20.858Z,99191.53
2022-10-05T16:23:29.998Z,99194.59
2022-10-05T16:26:20.596Z,99191.34
2022-10-05T16:28:47.702Z,99197.78
2022-10-05T16:31:31.267Z,99191.03
2022-10-05T16:34:10.386Z,99193.22
2022-10-05T16:37:28.462Z,99198.75
2022-10-05T16:40:21.537Z,99204.63
2022-10-05T16:43:28.382Z,99218.56
2022-10-05T16:46:15.936Z,99211.66
2022-10-05T16:48:48.903Z,99213.81
2022-10-05T16:51:23.426Z,99216.00
2022-10-05T16:54:02.240Z,99225.25
2022-10-05T16:56:39.462Z,99217.69
2022-10-05T16:59:24.676Z,99223.38
2022-10-05T17:02:15.272Z,99222.97
2022-10-05T17:05:01.821Z,99228.00
2022-10-05T17:07:49.806Z,99231.41
2022-10-05T17:10:38.010Z,99226.97
2022-10-05T17:13:37.615Z,99224.13
2022-10-05T17:16:29.442Z,99237.81
2022-10-05T17:19:21.347Z,99241.09
2022-10-05T17:22:07.933Z,99244.66
2022-10-05T17:24:41.833Z,99248.22
2022-10-05T17:27:26.123Z,99244.91
2022-10-05T17:29:55.405Z,99242.13
2022-10-05T17:32:22.353Z,99249.81
2022-10-05T17:35:01.435Z,99257.25
2022-10-05T17:37:28.425Z,99266.94
2022-10-05T17:39:57.634Z,99262.91
2022-10-05T17:42:30.247Z,99258.13
2022-10-05T17:45:20.890Z,99264.59
2022-10-05T17:48:04.261Z,99278.41
2022-10-05T17:51:09.781Z,99280.66
2022-10-05T17:54:04.164Z,99272.81
2022-10-05T17:56:53.424Z,99275.59
2022-10-05T17:59:46.331Z,99274.94
2022-10-05T18:02:23.034Z,99282.88
2022-10-05T18:05:14.623Z,99278.50
2022-10-05T18:07:44.173Z,99279.28
2022-10-05T18:10:16.997Z,99278.31
2022-10-05T18:13:11.361Z,99274.41
2022-10-05T18:15:45.326Z,99286.88
2022-10-05T18:18:44.031Z,99293.78
2022-10-05T18:21:13.866Z,99298.97
2022-10-05T18:24:02.895Z,99299.09
2022-10-05T18:26:36.956Z,99305.06
2022-10-05T18:29:39.023Z,99289.75
2022-10-05T18:32:23.570Z,99307.75
2022-10-05T18:35:01.976Z,99298.03
2022-10-05T18:37:50.664Z,99303.72
2022-10-05T18:40:26.682Z,99299.91
2022-10-05T18:43:06.576Z,99304.38
2022-10-05T18:45:44.240Z,99303.03
2022-10-05T18:48:30.051Z,99306.09
2022-10-05T18:51:27.405Z,99310.53
2022-10-05T18:53:54.591Z,99317.31
2022-10-05T18:56:30.283Z,99314.72
2022-10-05T18:59:27.712Z,99311.81
2022-10-05T19:02:20.329Z,99325.06
2022-10-05T19:05:29.305Z,99311.78
2022-10-05T19:08:20.726Z,99318.44
2022-10-05T19:10:55.662Z,99322.25
2022-10-05T19:13:25.525Z,99330.00
2022-10-05T19:16:06.888Z,99334.41
2022-10-05T19:19:01.331Z,99349.41
2022-10-05T19:21:39.594Z,99350.09
2022-10-05T19:24:25.047Z,99348.72
2022-10-05T19:27:17.178Z,99350.13
2022-10-05T19:29:56.218Z,99350.78
2022-10-05T19:32:30.544Z,99358.19
2022-10-05T19:35:13.198Z,99349.94
2022-10-05T19:38:00.813Z,99354.34
2022-10-05T19:40:36.354Z,99358.75
2022-10-05T19:43:19.133Z,99356.44
2022-10-05T19:46:19.018Z,99359.91
2022-10-05T19:48:53.464Z,99359.91
2022-10-05T19:51:36.124Z,99362.47
2022-10-05T19:54:16.466Z,99368.69
2022-10-05T19:56:50.218Z,99361.75
2022-10-05T19:59:24.689Z,99369.22
2022-10-05T20:01:57.355Z,99364.78
2022-10-05T20:04:41.018Z,99371.28
2022-10-05T20:07:17.263Z,99371.63
2022-10-05T20:09:59.520Z,99366.59
2022-10-05T20:12:54.698Z,99380.66
2022-10-05T20:15:52.121Z,99383.59
2022-10-05T20:18:58.708Z,99378.31
2022-10-05T20:21:45.977Z,99383.06
2022-10-05T20:24:20.461Z,99379.94
2022-10-05T20:27:15.156Z,99386.34
2022-10-05T20:29:44.858Z,99390.00
2022-10-05T20:32:18.099Z,99381.28
2022-10-05T20:34:47.215Z,99386.25
2022-10-05T20:37:16.684Z,99382.28
2022-10-05T20:39:43.823Z,99382.50
2022-10-05T20:42:11.254Z,99387.41
2022-10-05T20:44:38.603Z,99385.13
2022-10-05T20:47:09.648Z,99386.53
2022-10-05T20:49:38.533Z,99391.19
2022-10-05T20:52:06.750Z,99393.25
2022-10-05T20:54:33.848Z,99393.88
2022-10-05T20:57:00.833Z,99393.78
2022-10-05T20:59:27.831Z,99403.06
2022-10-05T21:01:54.984Z,99397.91
2022-10-05T21:04:24.580Z,99404.25
2022-10-05T21:06:52.961Z,99398.19
2022-10-05T21:09:21.618Z,99397.22
2022-10-05T21:11:50.353Z,99389.22
2022-10-05T21:14:17.425Z,99399.38
2022-10-05T21:16:45.985Z,99392.34
2022-10-05T21:19:14.454Z,99396.16
2022-10-05T21:21:43.296Z,99399.69
2022-10-05T21:24:13.925Z,99400.59
2022-10-05T21:26:41.839Z,99394.41
2022-10-05T21:29:12.575Z,99394.66
2022-10-05T21:31:40.512Z,99400.03
2022-10-05T21:34:07.906Z,99398.50
2022-10-05T21:36:35.247Z,99398.75
2022-10-05T21:39:02.267Z,99399.81
2022-10-05T21:41:29.350Z,99398.50
2022-10-05T21:43:56.332Z,99399.81
2022-10-05T21:46:27.607Z,99401.22
2022-10-05T21:48:55.955Z,99395.06
2022-10-05T21:51:26.389Z,99400.25
2022-10-05T21:54:03.653Z,99389.88
2022-10-05T21:56:37.097Z,99401.97
2022-10-05T21:59:09.284Z,99397.56
2022-10-05T22:01:37.155Z,99388.78
2022-10-05T22:04:06.874Z,99397.56
2022-10-05T22:06:36.645Z,99390.53
2022-10-05T22:09:06.015Z,99384.47
2022-10-05T22:11:34.269Z,99391.38
2022-10-05T22:14:04.257Z,99394.50
2022-10-05T22:16:34.941Z,99390.41
2022-10-05T22:19:05.286Z,99396.53
2022-10-05T22:21:34.427Z,99385.22
2022-10-05T22:24:02.804Z,99397.84
2022-10-05T22:26:30.124Z,99391.56
2022-10-05T22:28:57.224Z,99378.50
2022-10-05T22:31:24.516Z,99386.69
2022-10-05T22:33:51.575Z,99387.56
2022-10-05T22:36:19.570Z,99392.75
2022-10-05T22:38:47.725Z,99393.69
2022-10-05T22:41:18.448Z,99384.97
2022-10-05T22:43:50.188Z,99387.22
2022-10-05T22:46:18.096Z,99384.94
2022-10-05T22:48:45.074Z,99377.69
2022-10-05T22:51:12.136Z,99388.84
2022-10-05T22:53:39.175Z,99379.66
2022-10-05T22:56:09.048Z,99386.16
2022-10-05T22:58:36.704Z,99385.28
2022-10-05T23:01:05.929Z,99387.09
2022-10-05T23:03:33.545Z,99383.75
2022-10-05T23:06:03.679Z,99378.97
2022-10-05T23:08:32.259Z,99384.91
2022-10-05T23:11:10.630Z,99382.50
2022-10-05T23:13:38.107Z,99390.81
2022-10-05T23:18:50.631Z,99390.16
2022-10-05T23:21:18.889Z,99390.81
2022-10-05T23:23:49.059Z,99398.91
2022-10-05T23:26:16.996Z,99383.88
2022-10-05T23:28:48.058Z,99392.53
2022-10-05T23:31:17.481Z,99389.06
2022-10-05T23:33:44.715Z,99389.72
2022-10-05T23:36:21.970Z,99393.28
2022-10-05T23:38:49.428Z,99387.34
2022-10-05T23:41:17.205Z,99389.25
2022-10-05T23:43:44.201Z,99387.66
2022-10-05T23:46:11.993Z,99384.19
2022-10-05T23:48:39.287Z,99394.31
2022-10-05T23:51:08.185Z,99394.69
2022-10-05T23:53:35.552Z,99387.34
2022-10-05T23:56:02.721Z,99392.25
2022-10-05T23:58:30.036Z,99391.88
